Time;durP1;ratioP1;P1;durP2;ratioP2;P2;SDS_P1;SDS_P2;PMS_P1;PMS_P2;Temp;Humidity;BMP_temperature;BMP_pressure;BME280_temperature;BME280_humidity;BME280_pressure;Samples;Min_cycle;Max_cycle;Signal;HPM_P1;HPM_P2
2022/12/09 00:01:09;;;;;;;12.65;8.35;;;3.70;99.90;;;;;;5050917;28;20045;-71
2022/12/09 00:03:35;;;;;;;15.75;9.07;;;3.80;99.90;;;;;;5050633;28;20084;-71
2022/12/09 00:06:15;;;;;;;16.30;8.65;;;3.80;99.90;;;;;;5033103;28;20530;-72
2022/12/09 00:08:41;;;;;;;14.88;7.88;;;3.90;99.90;;;;;;5055485;28;20123;-72
2022/12/09 00:11:07;;;;;;;16.67;9.32;;;3.80;99.90;;;;;;5082541;28;20119;-71
2022/12/09 00:13:32;;;;;;;20.23;9.23;;;3.80;99.90;;;;;;5090733;28;20066;-71
2022/12/09 00:15:59;;;;;;;13.73;8.35;;;3.90;99.90;;;;;;5089966;28;20074;-71
2022/12/09 00:18:25;;;;;;;18.48;8.82;;;3.90;99.90;;;;;;5094596;28;20119;-71
2022/12/09 00:20:51;;;;;;;20.08;8.95;;;3.90;99.90;;;;;;5094821;28;20044;-70
2022/12/09 00:23:16;;;;;;;16.88;9.18;;;3.90;99.90;;;;;;5094740;28;20496;-71
2022/12/09 00:25:42;;;;;;;18.00;9.10;;;3.80;99.90;;;;;;5093986;28;20032;-71
2022/12/09 00:28:07;;;;;;;17.38;8.88;;;3.80;99.90;;;;;;5094570;28;20042;-71
2022/12/09 00:30:33;;;;;;;16.98;9.15;;;3.80;99.90;;;;;;5094446;28;20040;-71
2022/12/09 00:32:58;;;;;;;17.40;8.68;;;3.80;99.90;;;;;;5094404;28;20044;-71
2022/12/09 00:35:24;;;;;;;17.38;9.55;;;3.80;99.90;;;;;;5093678;28;20054;-71
2022/12/09 00:37:49;;;;;;;17.80;9.27;;;3.80;99.90;;;;;;5094380;28;20048;-72
2022/12/09 00:40:15;;;;;;;17.63;9.23;;;3.80;99.90;;;;;;5094408;28;20055;-71
2022/12/09 00:42:41;;;;;;;16.23;8.30;;;3.70;99.90;;;;;;5076091;28;20036;-71
2022/12/09 00:45:07;;;;;;;18.65;9.60;;;3.70;99.90;;;;;;5093468;28;20047;-71
2022/12/09 00:47:33;;;;;;;18.90;9.18;;;3.80;99.90;;;;;;5093857;28;20513;-71
2022/12/09 00:49:59;;;;;;;16.80;8.98;;;3.80;99.90;;;;;;5094211;28;20044;-71
2022/12/09 00:52:24;;;;;;;19.10;8.30;;;3.80;99.90;;;;;;5094083;28;20043;-72
2022/12/09 00:54:50;;;;;;;21.27;9.35;;;3.80;99.90;;;;;;5093145;28;20585;-71
2022/12/09 00:57:15;;;;;;;23.08;10.77;;;3.70;99.90;;;;;;5093559;28;20043;-71
2022/12/09 00:59:41;;;;;;;20.38;9.27;;;3.70;99.90;;;;;;5093856;28;20093;-71
2022/12/09 01:02:07;;;;;;;18.52;9.27;;;3.70;99.90;;;;;;5093784;28;20115;-72
2022/12/09 01:04:32;;;;;;;20.02;9.82;;;3.70;99.90;;;;;;5092877;28;20452;-72
2022/12/09 01:06:58;;;;;;;18.75;9.35;;;3.70;99.90;;;;;;5093960;28;20043;-70
2022/12/09 01:09:23;;;;;;;21.15;9.23;;;3.60;99.90;;;;;;5093742;28;20640;-71
2022/12/09 01:11:49;;;;;;;13.52;8.43;;;3.60;99.90;;;;;;5093738;28;20040;-71
2022/12/09 01:14:15;;;;;;;17.77;9.18;;;3.50;99.90;;;;;;5092743;28;20165;-71
2022/12/09 01:16:40;;;;;;;20.20;10.10;;;3.60;99.90;;;;;;5093577;28;20047;-72
2022/12/09 01:19:09;;;;;;;18.02;8.25;;;3.60;99.90;;;;;;5093516;28;20113;-71
2022/12/09 01:21:35;;;;;;;15.05;9.30;;;3.60;99.90;;;;;;5093645;28;20093;-71
2022/12/09 01:24:06;;;;;;;16.08;8.73;;;3.50;99.90;;;;;;5092708;28;21058;-71
2022/12/09 01:26:32;;;;;;;16.63;9.23;;;3.50;99.90;;;;;;5093334;28;20044;-71
2022/12/09 01:28:57;;;;;;;19.95;9.73;;;3.40;99.90;;;;;;5092262;28;20044;-71
2022/12/09 01:31:24;;;;;;;16.85;8.70;;;3.50;99.90;;;;;;5093126;28;20123;-71
2022/12/09 01:33:50;;;;;;;14.18;8.10;;;3.50;99.90;;;;;;5092334;28;20515;-71
2022/12/09 01:36:22;;;;;;;18.00;8.77;;;3.40;99.90;;;;;;5093094;28;20074;-70
2022/12/09 01:38:48;;;;;;;13.00;7.57;;;3.40;99.90;;;;;;5093238;28;20040;-71
2022/12/09 01:41:16;;;;;;;20.42;9.50;;;3.40;99.90;;;;;;5093255;28;20062;-71
2022/12/09 01:43:42;;;;;;;13.65;8.00;;;3.20;99.90;;;;;;5092563;28;20040;-72
2022/12/09 01:46:07;;;;;;;17.23;8.00;;;3.20;99.90;;;;;;5092507;28;20123;-71
2022/12/09 01:48:37;;;;;;;14.32;8.55;;;3.20;99.90;;;;;;5092717;28;20052;-72
2022/12/09 01:51:11;;;;;;;16.02;7.55;;;3.20;99.90;;;;;;5093165;28;20054;-70
2022/12/09 01:53:40;;;;;;;13.93;7.93;;;3.20;99.90;;;;;;5092953;28;20050;-71
2022/12/09 01:56:11;;;;;;;17.80;8.15;;;3.20;99.90;;;;;;5092297;28;20043;-71
2022/12/09 01:58:36;;;;;;;19.00;9.00;;;3.20;99.90;;;;;;5092641;28;20043;-71
2022/12/09 02:01:02;;;;;;;15.32;8.57;;;3.10;99.90;;;;;;5092899;28;20514;-71
2022/12/09 02:03:28;;;;;;;17.65;8.50;;;3.10;99.90;;;;;;5092666;28;20476;-71
2022/12/09 02:05:53;;;;;;;15.70;8.38;;;3.10;99.90;;;;;;5092014;28;20047;-70
2022/12/09 02:08:19;;;;;;;16.10;8.00;;;3.10;99.90;;;;;;5092438;28;20076;-71
2022/12/09 02:10:55;;;;;;;18.17;7.22;;;3.10;99.90;;;;;;5092569;28;20541;-70
2022/12/09 02:13:24;;;;;;;18.73;8.13;;;3.10;99.90;;;;;;5092515;28;20046;-71
2022/12/09 02:16:04;;;;;;;15.82;8.23;;;3.20;99.90;;;;;;5091828;28;20396;-70
2022/12/09 02:18:45;;;;;;;15.00;8.43;;;3.10;99.90;;;;;;5092460;28;20072;-70
2022/12/09 02:21:17;;;;;;;17.55;7.70;;;3.10;99.90;;;;;;5092332;28;20044;-70
2022/12/09 02:23:54;;;;;;;16.10;9.05;;;3.20;99.90;;;;;;5092037;28;20046;-71
2022/12/09 02:26:42;;;;;;;15.52;8.48;;;3.20;99.90;;;;;;5092229;28;20088;-71
2022/12/09 02:29:28;;;;;;;17.85;8.50;;;3.20;99.90;;;;;;5092389;28;20048;-71
2022/12/09 02:32:13;;;;;;;16.85;7.88;;;3.20;99.90;;;;;;5092279;28;20051;-71
2022/12/09 02:34:44;;;;;;;18.48;9.65;;;3.20;99.90;;;;;;5091524;28;20090;-71
2022/12/09 02:37:20;;;;;;;16.75;9.10;;;3.20;99.90;;;;;;5091957;28;20044;-71
2022/12/09 02:39:55;;;;;;;17.35;8.60;;;3.20;99.90;;;;;;5091723;28;20034;-71
2022/12/09 02:42:23;;;;;;;15.75;8.63;;;3.20;99.90;;;;;;5090774;28;20396;-71
2022/12/09 02:44:50;;;;;;;17.92;8.85;;;3.20;99.90;;;;;;5091257;28;20034;-72
2022/12/09 02:47:19;;;;;;;21.25;8.95;;;3.20;99.90;;;;;;5091885;28;20412;-71
2022/12/09 02:49:49;;;;;;;19.25;9.43;;;3.20;99.90;;;;;;5092049;28;20085;-71
2022/12/09 02:52:17;;;;;;;18.30;8.02;;;3.20;99.90;;;;;;5091877;28;20047;-71
2022/12/09 02:54:43;;;;;;;15.20;8.25;;;3.20;99.90;;;;;;5091088;28;20074;-71
2022/12/09 02:57:25;;;;;;;14.23;7.57;;;3.10;99.90;;;;;;5092680;28;20032;-71
2022/12/09 02:59:51;;;;;;;17.95;9.35;;;3.20;99.90;;;;;;5093485;28;20036;-70
2022/12/09 03:02:26;;;;;;;15.45;8.48;;;3.20;99.90;;;;;;5093712;28;20078;-71
2022/12/09 03:05:21;;;;;;;16.73;9.60;;;3.20;99.90;;;;;;5092720;28;20123;-70
2022/12/09 03:08:02;;;;;;;16.08;9.07;;;3.20;99.90;;;;;;5089820;28;20204;-72
2022/12/09 03:10:43;;;;;;;17.63;8.48;;;3.20;99.90;;;;;;5091501;28;20040;-71
2022/12/09 03:13:12;;;;;;;16.42;8.98;;;3.20;99.90;;;;;;5091447;28;20036;-71
2022/12/09 03:15:41;;;;;;;16.85;9.32;;;3.20;99.90;;;;;;5090496;28;20040;-71
2022/12/09 03:18:12;;;;;;;16.35;8.70;;;3.10;99.90;;;;;;5091133;28;20086;-70
2022/12/09 03:20:40;;;;;;;16.48;7.80;;;3.20;99.90;;;;;;5091082;28;20518;-72
2022/12/09 03:23:09;;;;;;;18.67;8.82;;;3.20;99.90;;;;;;5091413;28;20074;-72
2022/12/09 03:25:42;;;;;;;14.95;7.90;;;3.10;99.90;;;;;;5090354;28;20039;-70
2022/12/09 03:28:18;;;;;;;18.63;9.35;;;2.90;99.90;;;;;;5091064;28;20040;-71
2022/12/09 03:30:45;;;;;;;18.13;9.07;;;3.00;99.90;;;;;;5091123;28;20032;-71
2022/12/09 03:33:14;;;;;;;15.95;8.75;;;3.00;99.90;;;;;;5091333;28;20377;-70
2022/12/09 03:35:43;;;;;;;19.23;9.63;;;3.10;99.90;;;;;;5090434;28;20039;-71
2022/12/09 03:38:13;;;;;;;15.32;8.48;;;3.10;99.90;;;;;;5089706;28;20040;-71
2022/12/09 03:40:40;;;;;;;17.35;9.13;;;3.00;99.90;;;;;;5091071;28;20035;-71
2022/12/09 03:43:17;;;;;;;17.25;8.73;;;3.00;99.90;;;;;;5090823;28;20404;-71
2022/12/09 03:45:43;;;;;;;22.05;8.80;;;3.00;99.90;;;;;;5090561;28;20420;-70
2022/12/09 03:48:09;;;;;;;16.40;8.23;;;2.90;99.90;;;;;;5089378;28;20040;-70
2022/12/09 03:50:41;;;;;;;17.77;9.50;;;2.90;99.90;;;;;;5091284;28;20125;-71
2022/12/09 03:53:16;;;;;;;18.13;8.50;;;2.90;99.90;;;;;;5094498;28;20040;-71
2022/12/09 03:55:50;;;;;;;15.93;8.48;;;2.80;99.90;;;;;;5094590;28;20044;-71
2022/12/09 03:58:16;;;;;;;17.40;9.07;;;2.80;99.90;;;;;;5094784;28;20066;-71
2022/12/09 04:00:43;;;;;;;18.75;8.20;;;2.80;99.90;;;;;;5095166;28;20496;-70
2022/12/09 04:03:12;;;;;;;17.83;9.50;;;2.80;99.90;;;;;;5094902;28;20093;-71
2022/12/09 04:05:37;;;;;;;15.05;8.20;;;2.80;99.90;;;;;;5093104;28;20043;-70
2022/12/09 04:08:03;;;;;;;17.75;8.20;;;2.80;99.90;;;;;;5094648;28;20035;-71
2022/12/09 04:10:29;;;;;;;17.08;8.70;;;2.90;99.90;;;;;;5095039;28;20428;-71
2022/12/09 04:12:54;;;;;;;17.10;9.45;;;2.80;99.90;;;;;;5094738;28;20040;-72
2022/12/09 04:15:20;;;;;;;16.65;8.65;;;2.80;99.90;;;;;;5094073;28;20090;-71
2022/12/09 04:17:46;;;;;;;15.95;8.98;;;2.90;99.90;;;;;;5094848;28;20504;-70
2022/12/09 04:20:12;;;;;;;15.63;8.77;;;2.80;99.90;;;;;;5094842;28;20052;-70
2022/12/09 04:22:37;;;;;;;18.20;10.00;;;2.80;99.90;;;;;;5094526;28;20067;-71
2022/12/09 04:25:03;;;;;;;18.65;9.18;;;2.80;99.90;;;;;;5093693;28;20530;-71
2022/12/09 04:27:28;;;;;;;17.02;8.95;;;2.80;99.90;;;;;;5094413;28;20086;-71
2022/12/09 04:29:57;;;;;;;20.90;9.60;;;2.80;99.90;;;;;;5094675;28;20032;-70
2022/12/09 04:32:23;;;;;;;16.15;8.68;;;2.80;99.90;;;;;;5094473;28;20055;-72
2022/12/09 04:34:48;;;;;;;17.70;9.25;;;2.80;99.90;;;;;;5093440;28;20036;-71
2022/12/09 04:37:14;;;;;;;17.80;8.90;;;2.80;99.90;;;;;;5094106;28;20032;-71
2022/12/09 04:39:40;;;;;;;20.55;10.20;;;2.80;99.90;;;;;;5094490;28;20078;-71
2022/12/09 04:42:06;;;;;;;21.60;10.10;;;2.70;99.90;;;;;;5094247;28;20040;-71
2022/12/09 04:44:32;;;;;;;15.95;8.73;;;2.80;99.90;;;;;;5093473;28;20463;-70
2022/12/09 04:46:57;;;;;;;21.10;9.77;;;2.80;99.90;;;;;;5093962;28;20165;-72
2022/12/09 04:49:23;;;;;;;17.05;8.98;;;2.80;99.90;;;;;;5094349;28;20396;-71
2022/12/09 04:51:49;;;;;;;18.30;9.57;;;2.80;99.90;;;;;;5094103;28;20115;-71
2022/12/09 04:54:14;;;;;;;18.75;9.63;;;2.80;99.90;;;;;;5093469;28;20039;-71
2022/12/09 04:56:41;;;;;;;17.63;9.10;;;2.80;99.90;;;;;;5093938;28;20618;-71
2022/12/09 04:59:06;;;;;;;17.05;9.07;;;2.90;99.90;;;;;;5093769;28;20055;-71
2022/12/09 05:01:32;;;;;;;17.30;9.65;;;2.90;99.90;;;;;;5092496;28;20496;-71
2022/12/09 05:03:58;;;;;;;17.70;9.20;;;2.80;99.90;;;;;;5091367;28;20044;-71
2022/12/09 05:06:24;;;;;;;19.42;9.75;;;2.80;99.90;;;;;;5093857;28;20128;-72
2022/12/09 05:08:49;;;;;;;16.35;9.27;;;2.80;99.90;;;;;;5093809;28;20044;-72
2022/12/09 05:11:16;;;;;;;19.23;9.98;;;2.80;99.90;;;;;;5093597;28;20047;-71
2022/12/09 05:13:42;;;;;;;20.52;9.50;;;2.80;99.90;;;;;;5093164;28;20148;-72
2022/12/09 05:16:10;;;;;;;15.60;9.27;;;2.80;99.90;;;;;;5093390;28;20040;-70
2022/12/09 05:18:36;;;;;;;20.17;9.75;;;2.80;99.90;;;;;;5093314;28;20040;-71
2022/12/09 05:21:06;;;;;;;18.05;9.18;;;2.80;99.90;;;;;;5093463;28;20047;-71
2022/12/09 05:23:33;;;;;;;18.38;9.23;;;2.90;99.90;;;;;;5093564;28;20044;-71
2022/12/09 05:26:04;;;;;;;19.67;9.98;;;2.90;99.90;;;;;;5092822;28;20112;-70
2022/12/09 05:28:31;;;;;;;20.25;10.32;;;2.90;99.90;;;;;;5090463;28;20080;-71
2022/12/09 05:31:00;;;;;;;17.58;8.95;;;2.80;99.90;;;;;;5071639;28;20040;-70
2022/12/09 05:33:27;;;;;;;25.67;9.82;;;2.80;99.90;;;;;;5072957;28;20043;-71
2022/12/09 05:35:53;;;;;;;17.70;9.57;;;2.80;99.90;;;;;;5072163;28;20040;-69
2022/12/09 05:38:18;;;;;;;15.98;8.93;;;2.80;99.90;;;;;;5072906;28;20178;-71
2022/12/09 05:40:44;;;;;;;17.95;9.18;;;2.80;99.90;;;;;;5072845;28;20516;-71
2022/12/09 05:43:10;;;;;;;16.02;9.77;;;2.80;99.90;;;;;;5072910;28;20107;-70
2022/12/09 05:45:35;;;;;;;18.42;9.32;;;2.80;99.90;;;;;;5071690;28;20408;-70
2022/12/09 05:48:01;;;;;;;18.13;8.85;;;2.80;99.90;;;;;;5072654;28;20059;-70
2022/12/09 05:50:26;;;;;;;18.80;9.70;;;2.80;99.90;;;;;;5072976;28;20067;-71
2022/12/09 05:52:52;;;;;;;18.83;10.35;;;2.70;99.90;;;;;;5072592;28;20044;-70
2022/12/09 05:55:17;;;;;;;17.77;9.13;;;2.80;99.90;;;;;;5071968;28;20036;-70
2022/12/09 05:57:43;;;;;;;19.67;9.73;;;2.80;99.90;;;;;;5072607;28;20042;-70
2022/12/09 06:00:10;;;;;;;18.60;9.15;;;2.80;99.90;;;;;;5072446;28;20408;-71
2022/12/09 06:02:35;;;;;;;19.08;10.02;;;2.80;99.90;;;;;;5072258;28;20079;-71
2022/12/09 06:05:01;;;;;;;20.52;10.20;;;2.80;99.90;;;;;;5071906;28;20050;-71
2022/12/09 06:07:27;;;;;;;16.77;8.52;;;2.70;99.90;;;;;;5072350;28;20087;-71
2022/12/09 06:09:52;;;;;;;20.35;10.93;;;2.70;99.90;;;;;;5071087;28;20476;-70
2022/12/09 06:12:18;;;;;;;19.90;10.50;;;2.70;99.90;;;;;;5072509;28;20731;-70
2022/12/09 06:14:43;;;;;;;18.20;9.48;;;2.80;99.90;;;;;;5069672;28;20493;-70
2022/12/09 06:17:09;;;;;;;20.52;10.55;;;2.70;99.90;;;;;;5072210;28;20051;-70
2022/12/09 06:19:35;;;;;;;18.05;10.65;;;2.70;99.90;;;;;;5071919;28;20036;-72
2022/12/09 06:22:00;;;;;;;22.25;10.55;;;2.70;99.90;;;;;;5072385;28;20033;-70
2022/12/09 06:24:26;;;;;;;20.58;9.73;;;2.60;99.90;;;;;;5070033;28;20036;-70
2022/12/09 06:26:54;;;;;;;17.88;9.73;;;2.60;99.90;;;;;;5071854;28;20170;-71
2022/12/09 06:29:20;;;;;;;18.70;9.68;;;2.60;99.90;;;;;;5072015;28;20040;-70
2022/12/09 06:31:46;;;;;;;20.70;10.52;;;2.60;99.90;;;;;;5071697;28;20040;-70
2022/12/09 06:34:11;;;;;;;18.38;9.63;;;2.50;99.90;;;;;;5071335;28;20040;-71
2022/12/09 06:36:37;;;;;;;18.80;9.82;;;2.40;99.90;;;;;;5071687;28;20075;-71
2022/12/09 06:39:03;;;;;;;18.55;9.43;;;2.40;99.90;;;;;;5071672;28;20150;-71
2022/12/09 06:41:29;;;;;;;17.73;9.70;;;2.30;99.90;;;;;;5070174;28;20082;-70
2022/12/09 06:43:59;;;;;;;21.25;10.68;;;2.20;99.90;;;;;;5071131;28;20037;-70
2022/12/09 06:46:26;;;;;;;17.92;9.00;;;2.20;99.90;;;;;;5071197;28;20050;-71
2022/12/09 06:48:53;;;;;;;19.98;10.18;;;2.20;99.90;;;;;;5070178;28;20509;-71
2022/12/09 06:51:19;;;;;;;18.65;9.02;;;2.20;99.90;;;;;;5071513;28;20405;-71
2022/12/09 06:53:46;;;;;;;20.02;10.15;;;2.20;99.90;;;;;;5070908;28;20047;-72
2022/12/09 06:56:13;;;;;;;21.08;10.30;;;2.10;99.90;;;;;;5071558;28;20044;-72
2022/12/09 06:58:41;;;;;;;22.17;10.55;;;2.00;99.90;;;;;;5071128;28;20123;-70
2022/12/09 07:01:12;;;;;;;22.65;10.95;;;2.00;99.90;;;;;;5071595;28;20036;-71
2022/12/09 07:03:38;;;;;;;24.48;11.50;;;1.80;99.90;;;;;;5071441;28;20090;-70
2022/12/09 07:06:04;;;;;;;23.15;11.57;;;1.90;99.90;;;;;;5070589;28;20052;-71
2022/12/09 07:08:29;;;;;;;19.30;11.15;;;2.00;99.90;;;;;;5071031;28;20571;-70
2022/12/09 07:10:55;;;;;;;24.80;11.90;;;2.00;99.90;;;;;;5071247;28;20040;-71
2022/12/09 07:13:21;;;;;;;21.23;11.60;;;2.00;99.90;;;;;;5070877;28;20044;-71
2022/12/09 07:15:46;;;;;;;19.95;10.55;;;2.00;99.90;;;;;;5070610;28;20082;-71
2022/12/09 07:18:12;;;;;;;20.55;11.10;;;2.00;99.90;;;;;;5071160;28;20381;-70
2022/12/09 07:20:37;;;;;;;20.80;9.90;;;2.00;99.90;;;;;;5064757;28;20062;-74
2022/12/09 07:23:03;;;;;;;24.67;10.85;;;1.80;99.90;;;;;;5060875;28;20048;-70
2022/12/09 07:25:28;;;;;;;23.63;11.57;;;1.90;99.90;;;;;;5064060;28;20071;-71
2022/12/09 07:27:54;;;;;;;23.13;10.55;;;1.80;99.90;;;;;;5071109;28;20489;-71
2022/12/09 07:30:19;;;;;;;19.55;10.45;;;1.80;99.90;;;;;;5069183;28;20451;-71
2022/12/09 07:32:45;;;;;;;22.08;10.23;;;1.70;99.90;;;;;;5067403;28;20166;-71
2022/12/09 07:35:10;;;;;;;21.95;10.52;;;1.80;99.90;;;;;;5067262;28;20105;-70
2022/12/09 07:37:36;;;;;;;21.02;10.13;;;1.80;99.90;;;;;;5065468;28;20526;-71
2022/12/09 07:40:02;;;;;;;21.65;10.23;;;1.80;99.90;;;;;;5074927;28;20036;-71
2022/12/09 07:42:27;;;;;;;26.40;10.90;;;1.70;99.90;;;;;;5079782;28;20519;-72
2022/12/09 07:44:53;;;;;;;20.52;9.82;;;1.70;99.90;;;;;;5082487;28;20032;-71
2022/12/09 07:47:19;;;;;;;24.25;11.48;;;1.80;99.90;;;;;;5074357;28;20485;-72
2022/12/09 07:49:44;;;;;;;21.92;11.30;;;1.80;99.90;;;;;;5059061;28;20065;-70
2022/12/09 07:52:11;;;;;;;27.02;12.45;;;1.80;99.90;;;;;;5050710;28;20488;-70
2022/12/09 07:54:37;;;;;;;24.83;12.25;;;1.80;99.90;;;;;;5050062;28;20045;-70
2022/12/09 07:57:02;;;;;;;23.67;11.32;;;1.80;99.90;;;;;;5050542;28;20128;-70
2022/12/09 07:59:28;;;;;;;23.98;11.68;;;1.90;99.90;;;;;;5050488;28;20072;-70
2022/12/09 08:01:53;;;;;;;25.92;12.77;;;1.80;99.90;;;;;;5032629;28;20529;-73
2022/12/09 08:04:19;;;;;;;22.30;10.88;;;1.60;99.90;;;;;;5049966;28;20033;-74
2022/12/09 08:06:45;;;;;;;23.00;11.63;;;1.60;99.90;;;;;;5050422;28;20033;-74
2022/12/09 08:09:12;;;;;;;24.52;12.48;;;1.70;99.90;;;;;;5056295;28;20090;-71
2022/12/09 08:11:37;;;;;;;26.73;13.15;;;1.70;99.90;;;;;;5061325;28;20050;-71
2022/12/09 08:14:06;;;;;;;22.10;12.23;;;1.60;99.90;;;;;;5069694;28;20044;-70
2022/12/09 08:16:32;;;;;;;25.92;11.85;;;1.60;99.90;;;;;;5070698;28;20044;-71
2022/12/09 08:18:57;;;;;;;25.63;13.45;;;1.70;99.90;;;;;;5070468;28;20041;-73
2022/12/09 08:21:26;;;;;;;24.52;12.35;;;1.60;99.90;;;;;;5070566;28;20484;-71
2022/12/09 08:23:57;;;;;;;28.30;14.57;;;1.60;99.90;;;;;;5065307;28;20033;-74
2022/12/09 08:26:25;;;;;;;30.67;14.82;;;1.60;99.90;;;;;;5069073;28;20051;-73
2022/12/09 08:28:51;;;;;;;34.40;14.90;;;1.70;99.90;;;;;;5052626;28;20052;-74
2022/12/09 08:31:19;;;;;;;29.90;15.20;;;1.90;99.90;;;;;;5070480;28;20040;-72
2022/12/09 08:33:45;;;;;;;31.52;16.90;;;1.90;99.90;;;;;;5069613;28;20531;-72
2022/12/09 08:36:14;;;;;;;29.00;15.02;;;1.90;99.90;;;;;;5070207;28;20036;-72
2022/12/09 08:38:40;;;;;;;28.30;13.40;;;1.80;99.90;;;;;;5071810;28;20119;-71
2022/12/09 08:41:09;;;;;;;29.25;13.13;;;1.90;99.90;;;;;;5073912;28;20071;-72
2022/12/09 08:43:35;;;;;;;32.58;14.45;;;1.90;99.90;;;;;;5073813;28;20130;-71
2022/12/09 08:46:00;;;;;;;34.88;15.15;;;2.10;99.90;;;;;;5073223;28;20480;-71
2022/12/09 08:48:26;;;;;;;36.08;16.23;;;2.10;99.90;;;;;;5073483;28;20390;-71
2022/12/09 08:50:52;;;;;;;36.75;16.60;;;1.90;99.90;;;;;;5073858;28;20101;-70
2022/12/09 08:53:18;;;;;;;38.63;16.58;;;1.90;99.90;;;;;;5073797;28;20467;-72
2022/12/09 08:55:44;;;;;;;39.38;17.50;;;2.00;99.90;;;;;;5073151;28;20143;-70
2022/12/09 08:58:09;;;;;;;34.10;16.92;;;2.10;99.90;;;;;;5073212;28;20043;-71
2022/12/09 09:00:35;;;;;;;40.05;15.60;;;2.00;99.90;;;;;;5073768;28;20028;-71
2022/12/09 09:03:00;;;;;;;40.63;15.98;;;1.90;99.90;;;;;;5073395;28;20043;-73
2022/12/09 09:05:28;;;;;;;49.90;16.50;;;1.90;99.90;;;;;;5071406;28;20512;-71
2022/12/09 09:07:54;;;;;;;45.33;18.05;;;1.90;99.90;;;;;;5073610;28;20076;-71
2022/12/09 09:10:20;;;;;;;34.88;15.90;;;1.90;99.90;;;;;;5073729;28;20512;-71
2022/12/09 09:12:45;;;;;;;36.13;16.20;;;1.90;99.90;;;;;;5055323;28;20088;-71
2022/12/09 09:15:11;;;;;;;44.50;19.42;;;1.90;99.90;;;;;;5072832;28;20048;-72
2022/12/09 09:17:37;;;;;;;47.00;19.38;;;2.00;99.90;;;;;;5073167;28;20083;-72
2022/12/09 09:20:03;;;;;;;46.40;20.27;;;2.00;99.90;;;;;;5073366;28;20551;-71
2022/12/09 09:22:29;;;;;;;51.60;18.17;;;1.90;99.90;;;;;;5073035;28;20068;-73
2022/12/09 09:24:55;;;;;;;43.42;17.55;;;1.90;99.90;;;;;;5072519;28;20071;-71
2022/12/09 09:27:21;;;;;;;36.63;16.52;;;2.00;99.90;;;;;;5073131;28;20416;-72
2022/12/09 09:29:47;;;;;;;41.05;17.20;;;2.00;99.90;;;;;;5073035;28;20116;-72
2022/12/09 09:32:12;;;;;;;46.30;16.75;;;2.00;99.90;;;;;;5072691;28;20301;-71
2022/12/09 09:34:38;;;;;;;47.50;16.73;;;2.00;99.90;;;;;;5072300;28;20485;-71
2022/12/09 09:37:03;;;;;;;41.03;15.52;;;2.00;99.90;;;;;;5054678;28;20045;-72
2022/12/09 09:39:29;;;;;;;33.15;16.25;;;2.00;99.90;;;;;;5071996;28;20473;-71
2022/12/09 09:41:56;;;;;;;37.05;16.25;;;1.90;99.90;;;;;;5072579;28;20091;-72
2022/12/09 09:44:38;;;;;;;37.53;17.80;;;1.90;99.90;;;;;;5072124;28;20058;-72
2022/12/09 09:47:27;;;;;;;43.60;18.48;;;2.00;99.90;;;;;;5072561;28;20511;-72
2022/12/09 09:49:59;;;;;;;43.55;18.30;;;2.00;99.90;;;;;;5071374;28;20074;-71
2022/12/09 09:52:26;;;;;;;33.88;16.15;;;2.00;99.90;;;;;;5072705;28;20074;-73
2022/12/09 09:54:51;;;;;;;36.22;15.70;;;1.90;99.90;;;;;;5071985;28;20133;-70
2022/12/09 09:57:23;;;;;;;42.75;17.42;;;1.90;99.90;;;;;;5072501;28;20642;-71
2022/12/09 10:00:09;;;;;;;38.88;17.33;;;1.90;99.90;;;;;;5072564;28;20033;-71
2022/12/09 10:02:50;;;;;;;47.53;16.75;;;1.90;99.90;;;;;;5072596;28;20392;-71
2022/12/09 10:05:32;;;;;;;33.72;15.75;;;1.90;99.90;;;;;;5071798;28;20512;-72
2022/12/09 10:08:41;;;;;;;43.08;17.30;;;2.00;99.90;;;;;;5072679;28;20040;-71
2022/12/09 10:11:17;;;;;;;45.97;19.23;;;2.10;99.90;;;;;;5062885;28;20052;-72
2022/12/09 10:13:53;;;;;;;81.93;19.38;;;2.00;99.90;;;;;;5072034;28;20044;-72
2022/12/09 10:16:49;;;;;;;42.15;19.25;;;2.00;99.90;;;;;;5071976;28;20509;-71
2022/12/09 10:19:42;;;;;;;45.95;21.02;;;2.10;99.90;;;;;;5071785;28;20408;-71
2022/12/09 10:22:20;;;;;;;51.10;20.67;;;2.00;99.90;;;;;;5067408;28;20049;-72
2022/12/09 10:24:49;;;;;;;52.35;22.25;;;1.90;99.90;;;;;;5071337;28;20632;-71
2022/12/09 10:27:33;;;;;;;54.85;22.00;;;2.00;99.90;;;;;;5071739;28;20050;-73
2022/12/09 10:30:15;;;;;;;49.58;22.55;;;2.00;99.90;;;;;;5071676;28;20044;-71
2022/12/09 10:32:41;;;;;;;53.00;24.88;;;2.00;99.90;;;;;;5071990;28;20039;-73
2022/12/09 10:35:18;;;;;;;55.65;23.90;;;2.00;99.90;;;;;;5071218;28;20125;-71
2022/12/09 10:37:44;;;;;;;55.35;22.58;;;2.10;99.90;;;;;;5070198;28;20562;-71
2022/12/09 10:40:10;;;;;;;51.80;22.38;;;2.10;99.90;;;;;;5070584;28;20041;-71
2022/12/09 10:45:48;;;;;;;57.30;25.85;;;2.20;99.90;;;;;;5071062;28;20488;-72
2022/12/09 10:48:36;;;;;;;50.88;23.05;;;2.30;99.90;;;;;;5071620;28;20071;-71
2022/12/09 10:51:20;;;;;;;56.55;23.08;;;2.30;99.90;;;;;;5071919;28;20404;-71
2022/12/09 10:53:47;;;;;;;51.75;23.05;;;2.30;99.90;;;;;;5070944;28;20121;-71
2022/12/09 10:56:33;;;;;;;43.42;19.63;;;2.40;99.90;;;;;;5071354;28;20520;-71
2022/12/09 10:59:20;;;;;;;47.53;20.92;;;2.40;99.90;;;;;;5071101;28;20041;-72
2022/12/09 11:01:52;;;;;;;45.05;19.35;;;2.40;99.90;;;;;;5069638;28;20051;-71
2022/12/09 11:04:24;;;;;;;44.55;18.88;;;2.50;99.90;;;;;;5070382;28;20523;-71
2022/12/09 11:06:51;;;;;;;;;;;2.40;99.90;;;;;;5071862;28;20048;-71
2022/12/09 11:09:23;;;;;;;43.67;18.85;;;2.50;99.90;;;;;;5071489;28;19916;-71
2022/12/09 11:11:49;;;;;;;42.63;18.48;;;2.40;99.90;;;;;;5071311;28;20056;-71
2022/12/09 11:14:23;;;;;;;40.55;18.42;;;2.60;99.90;;;;;;5070280;28;20162;-71
2022/12/09 11:16:57;;;;;;;49.20;19.90;;;2.50;99.90;;;;;;5070999;28;20037;-71
2022/12/09 11:19:45;;;;;;;44.63;18.05;;;2.50;99.90;;;;;;5071127;28;20131;-71
2022/12/09 11:22:37;;;;;;;40.25;17.63;;;2.50;99.90;;;;;;5071206;28;20036;-72
2022/12/09 11:25:25;;;;;;;43.13;18.53;;;2.60;99.90;;;;;;5070247;28;20076;-71
2022/12/09 11:28:30;;;;;;;41.08;19.02;;;2.60;99.90;;;;;;5070746;28;20279;-72
2022/12/09 11:31:18;;;;;;;47.85;19.63;;;2.70;99.90;;;;;;5049741;28;20049;-72
2022/12/09 11:33:53;;;;;;;44.13;18.17;;;2.70;99.90;;;;;;5069121;28;20041;-71
2022/12/09 11:36:42;;;;;;;44.10;18.58;;;2.70;99.90;;;;;;5070765;28;20390;-71
2022/12/09 11:39:18;;;;;;;43.17;18.55;;;2.70;99.90;;;;;;5069978;28;20054;-71
2022/12/09 11:42:16;;;;;;;40.95;19.63;;;2.80;99.90;;;;;;5070849;28;20060;-73
2022/12/09 11:44:47;;;;;;;47.30;20.45;;;2.80;99.90;;;;;;5069915;28;20432;-73
2022/12/09 11:47:25;;;;;;;48.55;20.20;;;2.80;99.90;;;;;;5070874;28;20592;-71
2022/12/09 11:49:55;;;;;;;46.42;19.10;;;2.80;99.90;;;;;;5070698;28;20068;-72
2022/12/09 11:52:27;;;;;;;48.25;19.20;;;2.80;99.90;;;;;;5070763;28;20536;-71
2022/12/09 11:55:17;;;;;;;46.95;20.02;;;2.90;99.90;;;;;;5069825;28;20051;-71
2022/12/09 11:57:57;;;;;;;47.35;20.23;;;2.90;99.90;;;;;;5070659;28;20048;-71
2022/12/09 12:00:32;;;;;;;49.40;20.35;;;2.90;99.90;;;;;;5070826;28;20078;-72
2022/12/09 12:03:20;;;;;;;43.17;19.25;;;2.90;99.90;;;;;;5070540;28;20079;-72
2022/12/09 12:05:49;;;;;;;41.75;19.88;;;2.90;99.90;;;;;;5070068;28;20036;-71
2022/12/09 12:08:45;;;;;;;46.85;19.90;;;2.90;99.90;;;;;;5070635;28;20044;-74
2022/12/09 12:11:19;;;;;;;42.13;18.50;;;3.00;99.90;;;;;;5070522;28;20505;-71
2022/12/09 12:13:51;;;;;;;38.28;17.27;;;3.00;99.90;;;;;;5072781;28;20044;-72
2022/12/09 12:16:43;;;;;;;38.80;17.95;;;2.90;99.90;;;;;;5074593;28;20045;-72
2022/12/09 12:19:33;;;;;;;35.22;17.23;;;3.00;99.90;;;;;;5074621;28;20041;-71
2022/12/09 12:22:28;;;;;;;37.38;18.10;;;3.10;99.90;;;;;;5074604;28;20512;-72
2022/12/09 12:25:34;;;;;;;41.88;18.63;;;3.10;99.90;;;;;;5073831;28;20048;-72
2022/12/09 12:28:35;;;;;;;42.25;17.73;;;3.10;99.90;;;;;;5056209;28;20048;-72
2022/12/09 12:31:31;;;;;;;44.83;17.63;;;3.20;99.90;;;;;;5074396;28;20115;-72
2022/12/09 12:34:15;;;;;;;36.13;17.15;;;3.10;99.90;;;;;;5073456;28;20049;-73
2022/12/09 12:36:52;;;;;;;39.17;17.63;;;3.20;99.90;;;;;;5073905;28;20048;-71
2022/12/09 12:39:41;;;;;;;39.28;17.90;;;3.20;99.90;;;;;;5073123;28;20072;-71
2022/12/09 12:42:21;;;;;;;35.90;15.35;;;3.30;99.90;;;;;;5073754;28;20111;-71
2022/12/09 12:48:08;;;;;;;36.25;15.57;;;3.20;99.90;;;;;;5074079;28;20045;-71
2022/12/09 12:50:46;;;;;;;27.92;13.20;;;3.20;99.90;;;;;;5067678;28;20048;-71
2022/12/09 12:53:24;;;;;;;27.85;12.13;;;3.10;99.90;;;;;;5055783;28;20048;-71
2022/12/09 12:56:00;;;;;;;30.13;13.30;;;3.20;99.90;;;;;;5073036;28;20068;-69
2022/12/09 12:58:46;;;;;;;33.28;13.60;;;3.20;99.90;;;;;;5072042;28;20116;-69
2022/12/09 13:01:11;;;;;;;33.67;14.90;;;3.20;99.90;;;;;;5073119;28;20058;-69
2022/12/09 13:03:57;;;;;;;31.90;13.43;;;3.30;99.90;;;;;;5073575;28;20195;-70
2022/12/09 13:06:36;;;;;;;34.50;15.95;;;3.30;99.90;;;;;;5073129;28;20048;-69